| time (UTC) | temp F | wind direction | speed MPH | gust MPH | rain 1hr in | rain 24hr in | rain mn in | humidity % | barometer mb |
| 20260509015620 | 79 | 128 | 3.0 | 8.0 | 0.00 | 0.10 | 0.10 | 92 | 1005.6 |
| 20260509014134 | 79 | 146 | 4.0 | 11.0 | 0.00 | 0.10 | 0.10 | 91 | 1004.9 |
| 20260509012638 | 79 | 101 | 4.0 | 10.0 | 0.00 | 0.10 | 0.10 | 89 | 1005.1 |
| 20260509011122 | 80 | 146 | 7.0 | 14.0 | 0.00 | 0.10 | 0.10 | 88 | 1005.1 |
| 20260509005624 | 80 | 78 | 4.0 | 13.0 | 0.00 | 0.10 | 0.10 | 87 | 1005.3 |
| 20260509004142 | 81 | 76 | 3.0 | 12.0 | 0.00 | 0.10 | 0.10 | 86 | 1004.9 |
| 20260509002707 | 82 | 138 | 5.0 | 13.0 | 0.00 | 0.10 | 0.10 | 86 | 1004.8 |
| 20260509001125 | 82 | 113 | 5.0 | 9.0 | 0.00 | 0.10 | 0.10 | 85 | 1004.6 |
| 20260508235622 | 83 | 104 | 5.0 | 11.0 | 0.00 | 0.10 | 0.10 | 85 | 1004.4 |
| 20260508234119 | 84 | 143 | 5.0 | 13.0 | 0.00 | 0.10 | 0.10 | 84 | 1004.2 |
| 20260508232618 | 84 | 110 | 6.0 | 12.0 | 0.00 | 0.10 | 0.10 | 83 | 1004.4 |
| 20260508231117 | 84 | 149 | 6.0 | 13.0 | 0.00 | 0.10 | 0.10 | 83 | 1004.6 |
| 20260508225639 | 85 | 140 | 6.0 | 16.0 | 0.00 | 0.10 | 0.10 | 82 | 1004.4 |
| 20260508224119 | 85 | 108 | 4.0 | 11.0 | 0.00 | 0.10 | 0.10 | 82 | 1004.8 |
| 20260508222640 | 85 | 86 | 6.0 | 11.0 | 0.00 | 0.10 | 0.10 | 82 | 1004.7 |
| 20260508221141 | 86 | 88 | 4.0 | 9.0 | 0.00 | 0.10 | 0.10 | 82 | 1005.2 |
| 20260508215636 | 86 | 107 | 5.0 | 13.0 | 0.00 | 0.10 | 0.10 | 81 | 1005.2 |
| 20260508214124 | 87 | 101 | 6.0 | 14.0 | 0.00 | 0.10 | 0.10 | 81 | 1005.1 |
| 20260508212626 | 87 | 70 | 7.0 | 15.0 | 0.00 | 0.10 | 0.10 | 82 | 1005.3 |
| 20260508211122 | 86 | 76 | 7.0 | 15.0 | 0.00 | 0.10 | 0.10 | 82 | 1005.3 |
| 20260508205641 | 87 | 89 | 7.0 | 15.0 | 0.00 | 0.10 | 0.10 | 82 | 1005.4 |
| 20260508204119 | 87 | 78 | 6.0 | 13.0 | 0.00 | 0.10 | 0.10 | 82 | 1005.5 |
| 20260508202621 | 87 | 122 | 7.0 | 14.0 | 0.00 | 0.10 | 0.10 | 83 | 1005.9 |
| 20260508201200 | 89 | 84 | 5.0 | 14.0 | 0.00 | 0.10 | 0.10 | 81 | 1006.0 |
| 20260508195623 | 88 | 120 | 7.0 | 13.0 | 0.00 | 0.10 | 0.10 | 80 | 1006.1 |
| 20260508194119 | 88 | 182 | 5.0 | 11.0 | 0.00 | 0.10 | 0.10 | 80 | 1006.2 |
| 20260508192623 | 88 | 88 | 5.0 | 11.0 | 0.00 | 0.10 | 0.10 | 79 | 1006.6 |
| 20260508191147 | 88 | 124 | 4.0 | 9.0 | 0.00 | 0.10 | 0.10 | 77 | 1006.6 |
| 20260508185627 | 87 | 63 | 4.0 | 10.0 | 0.00 | 0.10 | 0.10 | 81 | 1006.9 |
| 20260508184126 | 87 | 78 | 4.0 | 9.0 | 0.00 | 0.10 | 0.10 | 82 | 1007.1 |
| 20260508182647 | 86 | 87 | 4.0 | 9.0 | 0.00 | 0.10 | 0.10 | 83 | 1007.4 |
| 20260508181125 | 85 | 83 | 2.0 | 8.0 | 0.00 | 0.10 | 0.10 | 84 | 1007.7 |
| 20260508175643 | 86 | 99 | 1.0 | 6.0 | 0.00 | 0.10 | 0.10 | 82 | 1007.9 |
| 20260508174124 | 87 | 64 | 3.0 | 8.0 | 0.00 | 0.10 | 0.10 | 82 | 1008.1 |
| 20260508172623 | 86 | 84 | 2.0 | 7.0 | 0.00 | 0.10 | 0.10 | 83 | 1008.3 |
| 20260508171124 | 85 | 76 | 1.0 | 6.0 | 0.00 | 0.10 | 0.10 | 83 | 1008.5 |
| 20260508165626 | 86 | 89 | 1.0 | 8.0 | 0.00 | 0.10 | 0.10 | 85 | 1008.8 |
| 20260508164141 | 85 | 78 | 1.0 | 3.0 | 0.00 | 0.10 | 0.10 | 89 | 1008.8 |
| 20260508162636 | 83 | 63 | 0.0 | 4.0 | 0.00 | 0.10 | 0.10 | 90 | 1009.1 |
| 20260508161127 | 82 | 100 | 1.0 | 6.0 | 0.00 | 0.10 | 0.10 | 95 | 1009.4 |
| 20260508155625 | 81 | 80 | 1.0 | 4.0 | 0.00 | 0.10 | 0.10 | 98 | 1009.4 |
| 20260508154125 | 80 | 64 | 1.0 | 4.0 | 0.00 | 0.10 | 0.10 | 99 | 1009.6 |
| 20260508152644 | 78 | 78 | 1.0 | 4.0 | 0.00 | 0.10 | 0.10 | 100 | 1009.6 |
| 20260508151121 | 78 | 48 | 1.0 | 4.0 | 0.00 | 0.10 | 0.10 | 100 | 1009.6 |
| 20260508145626 | 76 | 5 | 0.0 | 4.0 | 0.00 | 0.10 | 0.10 | 100 | 1009.5 |
| 20260508144124 | 74 | 345 | 0.0 | 3.0 | 0.00 | 0.10 | 0.10 | 99 | 1010.0 |
| 20260508142625 | 74 | 340 | 1.0 | 4.0 | 0.00 | 0.10 | 0.10 | 100 | 1010.1 |
| 20260508141125 | 74 | 346 | 0.0 | 3.0 | 0.00 | 0.10 | 0.10 | 99 | 1010.2 |
| 20260508135627 | 74 | 333 | 0.0 | 4.0 | 0.01 | 0.10 | 0.10 | 99 | 1010.2 |
| 20260508134124 | 74 | 309 | 0.0 | 3.0 | 0.01 | 0.10 | 0.10 | 99 | 1010.2 |
| 20260508132627 | 74 | 304 | 0.0 | 3.0 | 0.01 | 0.10 | 0.10 | 99 | 1010.1 |
| 20260508131125 | 74 | 314 | 1.0 | 5.0 | 0.01 | 0.10 | 0.10 | 99 | 1010.0 |
| 20260508125646 | 75 | 304 | 1.0 | 6.0 | 0.00 | 0.09 | 0.09 | 99 | 1009.5 |
| 20260508124120 | 76 | 300 | 1.0 | 4.0 | 0.00 | 0.09 | 0.09 | 99 | 1009.2 |
| 20260508122640 | 76 | 281 | 0.0 | 4.0 | 0.00 | 0.09 | 0.09 | 99 | 1008.9 |
| 20260508121134 | 77 | 315 | 1.0 | 3.0 | 0.00 | 0.09 | 0.09 | 99 | 1008.4 |
| 20260508115629 | 77 | 302 | 0.0 | 2.0 | 0.00 | 0.09 | 0.09 | 99 | 1008.4 |
| 20260508114121 | 77 | 303 | 2.0 | 3.0 | 0.00 | 0.09 | 0.09 | 99 | 1008.6 |
| 20260508112627 | 77 | 303 | 0.0 | 1.0 | 0.00 | 0.09 | 0.09 | 99 | 1008.2 |
| 20260508111125 | 77 | 297 | 1.0 | 6.0 | 0.00 | 0.09 | 0.09 | 99 | 1008.7 |
| 20260508105647 | 77 | 288 | 3.0 | 8.0 | 0.00 | 0.09 | 0.09 | 99 | 1008.7 |
| 20260508104124 | 78 | 283 | 4.0 | 9.0 | 0.00 | 0.09 | 0.09 | 99 | 1008.8 |
| 20260508102625 | 78 | 290 | 7.0 | 10.0 | 0.00 | 0.09 | 0.09 | 99 | 1008.7 |
| 20260508101126 | 78 | 282 | 7.0 | 14.0 | 0.00 | 0.09 | 0.09 | 99 | 1008.5 |
| 20260508095625 | 78 | 291 | 3.0 | 12.0 | 0.01 | 0.09 | 0.09 | 99 | 1007.1 |
| 20260508094123 | 78 | 128 | 10.0 | 20.0 | 0.02 | 0.09 | 0.09 | 99 | 1005.5 |
| 20260508092642 | 78 | 129 | 5.0 | 9.0 | 0.03 | 0.09 | 0.09 | 99 | 1006.8 |
| 20260508091122 | 78 | 56 | 5.0 | 15.0 | 0.04 | 0.09 | 0.09 | 99 | 1007.0 |
| 20260508085624 | 78 | 112 | 11.0 | 20.0 | 0.04 | 0.08 | 0.08 | 99 | 1006.9 |
| 20260508084122 | 78 | 100 | 12.0 | 21.0 | 0.05 | 0.07 | 0.07 | 99 | 1006.9 |
| 20260508082633 | 77 | 104 | 8.0 | 13.0 | 0.05 | 0.06 | 0.06 | 99 | 1007.5 |
| 20260508081133 | 77 | 65 | 10.0 | 19.0 | 0.05 | 0.05 | 0.05 | 99 | 1008.0 |
| 20260508075625 | 77 | 144 | 6.0 | 11.0 | 0.04 | 0.04 | 0.04 | 99 | 1009.1 |
| 20260508074122 | 77 | 164 | 3.0 | 5.0 | 0.02 | 0.02 | 0.02 | 98 | 1009.8 |
| 20260508072624 | 77 | 289 | 1.0 | 2.0 | 0.01 | 0.01 | 0.01 | 98 | 1009.6 |
| 20260508071141 | 77 | 283 | 2.0 | 5.0 | 0.00 | 0.00 | 0.00 | 98 | 1010.7 |
| 20260508065641 | 77 | 263 | 2.0 | 4.0 | 0.00 | 0.00 | 0.00 | 98 | 1011.3 |
| 20260508064116 | 77 | 86 | 0.0 | 0.0 | 0.00 | 0.00 | 0.00 | 98 | 1011.0 |
| 20260508062617 | 77 | 86 | 0.0 | 1.0 | 0.00 | 0.00 | 0.00 | 98 | 1010.4 |
| 20260508061122 | 77 | 82 | 2.0 | 4.0 | 0.00 | 0.00 | 0.00 | 98 | 1010.5 |
| 20260508055625 | 77 | 67 | 1.0 | 4.0 | 0.00 | 0.00 | 0.00 | 98 | 1010.0 |
| 20260508054125 | 77 | 69 | 0.0 | 3.0 | 0.00 | 0.00 | 0.00 | 98 | 1010.8 |
| 20260508052641 | 77 | 64 | 1.0 | 4.0 | 0.00 | 0.00 | 0.00 | 98 | 1010.4 |
| 20260508051134 | 77 | 119 | 3.0 | 9.0 | 0.00 | 0.00 | 0.00 | 97 | 1010.2 |
| 20260508045705 | 77 | 84 | 9.0 | 13.0 | 0.00 | 0.00 | 0.00 | 97 | 1010.2 |
| 20260508044116 | 77 | 80 | 3.0 | 10.0 | 0.00 | 0.00 | 0.00 | 97 | 1010.9 |
| 20260508042618 | 77 | 48 | 2.0 | 11.0 | 0.00 | 0.00 | 0.00 | 97 | 1010.5 |
| 20260508041156 | 77 | 54 | 2.0 | 10.0 | 0.00 | 0.00 | 0.00 | 96 | 1010.7 |
| 20260508035623 | 77 | 103 | 4.0 | 10.0 | 0.00 | 0.00 | 0.00 | 96 | 1010.3 |
| 20260508034142 | 77 | 48 | 1.0 | 10.0 | 0.00 | 0.00 | 0.00 | 96 | 1010.4 |
| 20260508032619 | 77 | 48 | 1.0 | 9.0 | 0.00 | 0.00 | 0.00 | 96 | 1010.6 |
| 20260508031119 | 77 | 30 | 1.0 | 6.0 | 0.00 | 0.00 | 0.00 | 97 | 1010.1 |
| 20260508025620 | 77 | 61 | 2.0 | 9.0 | 0.00 | 0.00 | 0.00 | 97 | 1010.3 |
| 20260508024119 | 77 | 259 | 2.0 | 10.0 | 0.00 | 0.00 | 0.00 | 97 | 1010.1 |
| 20260508022640 | 77 | 57 | 2.0 | 9.0 | 0.00 | 0.00 | 0.00 | 97 | 1010.2 |
| 20260508021117 | 77 | 49 | 2.0 | 11.0 | 0.00 | 0.00 | 0.00 | 97 | 1009.8 |